createdAt,value
2023-02-23T00:01:44.565Z,3.47
2023-02-23T00:05:15.192Z,3.46
2023-02-23T00:08:47.774Z,3.43
2023-02-23T00:12:47.468Z,3.42
2023-02-23T00:16:17.930Z,3.39
2023-02-23T00:20:14.361Z,3.37
2023-02-23T00:24:03.422Z,3.39
2023-02-23T00:28:14.165Z,3.38
2023-02-23T00:30:50.355Z,3.37
2023-02-23T00:33:18.759Z,3.36
2023-02-23T00:36:09.468Z,3.35
2023-02-23T00:38:48.206Z,3.35
2023-02-23T00:41:20.861Z,3.35
2023-02-23T00:43:56.400Z,3.35
2023-02-23T00:46:30.700Z,3.35
2023-02-23T00:49:01.503Z,3.34
2023-02-23T00:51:34.325Z,3.34
2023-02-23T00:54:10.087Z,3.31
2023-02-23T00:56:42.860Z,3.29
2023-02-23T00:59:15.033Z,3.17
2023-02-23T01:01:46.989Z,3.28
2023-02-23T01:04:17.511Z,3.28
2023-02-23T01:06:50.963Z,3.26
2023-02-23T01:09:28.675Z,3.27
2023-02-23T01:12:50.177Z,3.26
2023-02-23T01:15:23.077Z,3.25
2023-02-23T01:17:55.775Z,3.23
2023-02-23T01:20:27.465Z,3.19
2023-02-23T01:22:59.964Z,3.15
2023-02-23T01:25:33.384Z,3.11
2023-02-23T01:28:23.243Z,3.09
2023-02-23T01:31:52.483Z,3.05
2023-02-23T01:34:24.448Z,3.01
2023-02-23T01:36:53.028Z,2.98
2023-02-23T01:39:44.821Z,2.97
2023-02-23T01:42:16.278Z,2.93
2023-02-23T01:45:40.789Z,2.91
2023-02-23T01:48:25.888Z,2.91
2023-02-23T01:51:19.947Z,2.91
2023-02-23T01:54:32.590Z,2.88
2023-02-23T01:58:09.195Z,2.86
2023-02-23T02:00:49.773Z,2.85
2023-02-23T02:03:54.259Z,2.81
2023-02-23T02:06:29.399Z,2.77
2023-02-23T02:09:27.165Z,2.75
2023-02-23T02:12:15.549Z,2.73
2023-02-23T02:15:09.686Z,2.72
2023-02-23T02:18:56.202Z,2.72
2023-02-23T02:22:28.078Z,2.71
2023-02-23T02:26:18.926Z,2.71
2023-02-23T02:30:45.168Z,2.71
2023-02-23T02:34:40.511Z,2.71
2023-02-23T02:38:31.674Z,2.72
2023-02-23T02:42:02.648Z,2.72
2023-02-23T02:45:33.516Z,2.72
2023-02-23T02:49:22.364Z,2.68
2023-02-23T02:52:40.148Z,2.67
2023-02-23T02:55:53.174Z,2.64
2023-02-23T02:58:44.361Z,-23.51
2023-02-23T03:02:12.085Z,-52.94
2023-02-23T03:05:39.357Z,2.57
2023-02-23T03:09:27.482Z,-23.57
2023-02-23T03:13:21.171Z,-128.00
2023-02-23T03:16:42.240Z,-128.00
2023-02-23T03:20:09.393Z,-128.00
2023-02-23T03:23:38.944Z,-128.00
2023-02-23T03:27:25.131Z,-128.00
2023-02-23T03:30:37.703Z,-128.00
2023-02-23T03:34:18.945Z,-128.00
2023-02-23T03:37:28.066Z,-128.00
2023-02-23T03:40:47.347Z,-128.00
2023-02-23T03:44:00.964Z,-128.00
2023-02-23T03:47:23.082Z,-128.00
2023-02-23T03:50:13.986Z,-128.00
2023-02-23T03:53:09.895Z,-128.00
2023-02-23T03:56:08.083Z,-128.00
2023-02-23T03:59:03.742Z,-128.00
2023-02-23T04:02:14.492Z,-128.00
2023-02-23T04:05:06.870Z,-128.00
2023-02-23T04:07:58.440Z,-128.00
2023-02-23T04:10:50.457Z,-128.00
2023-02-23T04:13:40.420Z,-128.00
2023-02-23T04:16:12.456Z,-128.00
2023-02-23T04:18:51.589Z,-128.00
2023-02-23T04:21:20.679Z,-128.00
2023-02-23T04:23:52.497Z,-128.00
2023-02-23T04:26:22.885Z,-128.00
2023-02-23T04:28:53.364Z,-128.00
2023-02-23T04:31:26.454Z,-128.00
2023-02-23T04:33:57.258Z,-128.00
2023-02-23T04:36:30.323Z,-128.00
2023-02-23T04:39:01.467Z,-128.00
2023-02-23T04:41:31.636Z,-128.00
2023-02-23T04:44:04.401Z,-128.00
2023-02-23T04:46:34.340Z,-128.00
2023-02-23T04:49:11.034Z,-128.00
2023-02-23T04:51:41.283Z,-128.00
2023-02-23T04:54:12.150Z,-128.00
2023-02-23T04:56:41.898Z,-128.00
2023-02-23T04:59:20.345Z,-128.00
2023-02-23T05:01:51.557Z,-128.00
2023-02-23T05:04:24.120Z,-128.00
2023-02-23T05:06:56.036Z,-128.00
2023-02-23T05:09:27.064Z,-128.00
2023-02-23T05:11:58.206Z,-128.00
2023-02-23T05:14:27.282Z,-128.00
2023-02-23T05:17:19.915Z,-128.00
2023-02-23T05:19:50.893Z,-128.00
2023-02-23T05:22:22.310Z,-128.00
2023-02-23T05:24:56.407Z,-128.00
2023-02-23T05:27:28.448Z,-128.00
2023-02-23T05:29:59.666Z,-128.00
2023-02-23T05:32:30.055Z,-128.00
2023-02-23T05:35:24.200Z,-128.00
2023-02-23T05:38:39.028Z,-128.00
2023-02-23T05:41:12.293Z,-128.00
2023-02-23T05:43:42.848Z,-128.00
2023-02-23T05:46:17.518Z,-128.00
2023-02-23T05:50:04.986Z,-128.00
2023-02-23T05:52:41.217Z,-128.00
2023-02-23T05:55:12.100Z,-128.00
2023-02-23T05:57:44.034Z,-128.00
2023-02-23T06:00:18.767Z,-128.00
2023-02-23T06:03:47.357Z,-128.00
2023-02-23T06:06:31.612Z,-128.00
2023-02-23T06:09:09.577Z,-128.00
2023-02-23T06:12:26.704Z,-128.00
2023-02-23T06:14:55.451Z,-128.00
2023-02-23T06:17:27.788Z,-128.00
2023-02-23T06:19:57.886Z,-128.00
2023-02-23T06:22:28.751Z,-128.00
2023-02-23T06:25:00.817Z,-128.00
2023-02-23T06:27:32.838Z,-128.00
2023-02-23T06:30:21.360Z,-128.00
2023-02-23T06:33:30.762Z,-128.00
2023-02-23T06:36:00.797Z,-128.00
2023-02-23T06:38:32.472Z,-128.00
2023-02-23T06:41:11.084Z,-128.00
2023-02-23T06:43:42.102Z,-128.00
2023-02-23T06:46:12.239Z,-128.00
2023-02-23T06:48:44.678Z,-128.00
2023-02-23T06:51:15.644Z,-128.00
2023-02-23T06:53:46.192Z,-128.00
2023-02-23T06:56:18.168Z,-128.00
2023-02-23T06:59:08.446Z,-128.00
2023-02-23T07:02:19.881Z,-128.00
2023-02-23T07:04:49.249Z,-128.00
2023-02-23T07:07:19.103Z,-128.00
2023-02-23T07:10:31.147Z,-128.00
2023-02-23T07:13:01.134Z,-128.00
2023-02-23T07:16:34.718Z,-128.00
2023-02-23T07:20:04.609Z,-128.00
2023-02-23T07:22:53.165Z,-128.00
2023-02-23T07:25:21.894Z,-128.00
2023-02-23T07:32:40.425Z,-128.00
2023-02-23T07:36:10.114Z,-128.00
2023-02-23T07:39:05.688Z,-128.00
2023-02-23T07:41:34.132Z,-128.00
2023-02-23T07:44:02.676Z,-128.00
2023-02-23T07:46:34.249Z,-128.00
2023-02-23T07:49:03.420Z,-128.00
2023-02-23T07:52:37.712Z,-128.00
2023-02-23T07:57:06.952Z,-128.00
2023-02-23T08:00:25.360Z,-128.00
2023-02-23T08:03:17.834Z,-128.00
2023-02-23T08:05:47.734Z,-128.00
2023-02-23T08:08:17.041Z,-128.00
2023-02-23T08:11:46.555Z,-128.00
2023-02-23T08:14:34.744Z,-128.00
2023-02-23T08:17:35.282Z,-128.00
2023-02-23T08:20:11.305Z,-128.00
2023-02-23T08:22:49.298Z,-128.00
2023-02-23T08:25:21.674Z,-128.00
2023-02-23T08:27:55.312Z,-128.00
2023-02-23T08:30:27.180Z,-128.00
2023-02-23T08:32:58.101Z,-128.00
2023-02-23T08:35:51.854Z,-128.00
2023-02-23T08:38:22.118Z,-128.00
2023-02-23T08:40:51.380Z,-128.00
2023-02-23T08:43:21.344Z,-128.00
2023-02-23T08:45:50.315Z,-128.00
2023-02-23T08:48:19.808Z,-128.00
2023-02-23T08:51:11.151Z,-128.00
2023-02-23T08:53:40.885Z,-128.00
2023-02-23T08:56:16.005Z,-128.00
2023-02-23T08:58:46.705Z,-128.00
2023-02-23T09:01:22.318Z,-128.00
2023-02-23T09:05:03.685Z,-128.00
2023-02-23T09:07:53.732Z,-128.00
2023-02-23T09:10:51.592Z,-128.00
2023-02-23T09:13:20.605Z,-128.00
2023-02-23T09:15:53.015Z,-128.00
2023-02-23T09:18:29.309Z,-128.00
2023-02-23T09:21:00.358Z,-128.00
2023-02-23T09:23:29.973Z,-128.00
2023-02-23T09:26:02.626Z,-128.00
2023-02-23T09:28:50.531Z,-128.00
2023-02-23T09:31:24.692Z,-128.00
2023-02-23T09:34:13.006Z,-128.00
2023-02-23T09:36:41.922Z,-128.00
2023-02-23T09:39:12.912Z,-128.00
2023-02-23T09:42:13.971Z,-128.00
2023-02-23T09:45:37.717Z,-128.00
2023-02-23T09:48:28.361Z,-128.00
2023-02-23T09:50:58.511Z,-128.00
2023-02-23T09:53:39.193Z,-128.00
2023-02-23T09:56:16.739Z,-128.00
2023-02-23T09:59:06.240Z,-128.00
2023-02-23T10:02:15.680Z,-128.00
2023-02-23T10:05:48.499Z,-128.00
2023-02-23T10:08:46.633Z,-128.00
2023-02-23T10:12:06.651Z,-128.00
2023-02-23T10:15:14.505Z,-128.00
2023-02-23T10:17:56.188Z,-128.00
2023-02-23T10:21:09.673Z,-128.00
2023-02-23T10:23:46.547Z,-128.00
2023-02-23T10:26:22.634Z,-128.00
2023-02-23T10:28:54.474Z,-128.00
2023-02-23T10:31:32.350Z,-128.00
2023-02-23T10:34:57.870Z,-128.00
2023-02-23T10:37:26.614Z,-128.00
2023-02-23T10:40:56.395Z,-128.00
2023-02-23T10:44:34.428Z,-128.00
2023-02-23T10:47:08.428Z,-128.00
2023-02-23T10:49:52.875Z,-128.00
2023-02-23T10:52:58.306Z,-128.00
2023-02-23T10:55:32.410Z,-128.00
2023-02-23T10:58:22.545Z,-128.00
2023-02-23T11:01:05.398Z,-128.00
2023-02-23T11:04:04.341Z,-128.00
2023-02-23T11:07:47.284Z,-128.00
2023-02-23T11:11:01.056Z,-128.00
2023-02-23T11:13:36.045Z,-128.00
2023-02-23T11:16:20.550Z,-128.00
2023-02-23T11:18:52.976Z,-128.00
2023-02-23T11:21:35.948Z,-128.00
2023-02-23T11:24:39.175Z,-128.00
2023-02-23T11:27:23.483Z,-128.00
2023-02-23T11:30:13.163Z,-128.00
2023-02-23T11:33:19.389Z,-128.00
2023-02-23T11:36:17.298Z,-128.00
2023-02-23T11:38:48.061Z,-128.00
2023-02-23T11:41:24.582Z,-128.00
2023-02-23T11:44:29.299Z,-128.00
2023-02-23T11:46:59.081Z,-128.00
2023-02-23T11:49:53.962Z,-128.00
2023-02-23T11:52:44.939Z,-128.00
2023-02-23T11:55:20.661Z,-128.00
2023-02-23T11:57:53.580Z,-128.00
2023-02-23T12:00:46.123Z,-128.00
2023-02-23T12:03:24.926Z,-128.00
2023-02-23T12:06:27.967Z,-128.00
2023-02-23T12:09:13.358Z,-128.00
2023-02-23T12:12:25.400Z,-128.00
2023-02-23T12:15:40.869Z,-128.00
2023-02-23T12:18:46.056Z,-128.00
2023-02-23T12:21:56.393Z,-128.00
2023-02-23T12:25:03.183Z,-128.00
2023-02-23T12:28:18.108Z,-128.00
2023-02-23T12:31:04.526Z,-128.00
2023-02-23T12:33:50.831Z,-128.00
2023-02-23T12:37:22.653Z,-128.00
2023-02-23T12:39:59.490Z,-128.00
2023-02-23T12:43:15.001Z,-128.00
2023-02-23T12:46:27.207Z,-128.00
2023-02-23T12:49:41.765Z,4.05
2023-02-23T12:52:38.590Z,3.99
2023-02-23T12:55:13.815Z,4.06
2023-02-23T12:57:59.958Z,4.08
2023-02-23T13:01:26.326Z,4.04
2023-02-23T13:04:42.305Z,4.16
2023-02-23T13:07:42.173Z,4.28
2023-02-23T13:10:39.169Z,4.32
2023-02-23T13:13:40.494Z,4.37
2023-02-23T13:16:37.097Z,4.42
2023-02-23T13:19:42.633Z,4.39
2023-02-23T13:22:29.137Z,4.40
2023-02-23T13:25:05.170Z,4.37
2023-02-23T13:27:38.866Z,4.37
2023-02-23T13:30:11.646Z,4.36
2023-02-23T13:32:40.351Z,4.32
2023-02-23T13:35:24.350Z,4.28
2023-02-23T13:38:19.984Z,4.22
2023-02-23T13:41:10.428Z,4.20
2023-02-23T13:45:00.723Z,4.12
2023-02-23T13:51:35.475Z,4.13
2023-02-23T13:54:11.850Z,4.09
2023-02-23T13:56:57.905Z,4.09
2023-02-23T13:59:31.368Z,4.08
2023-02-23T14:02:03.420Z,4.11
2023-02-23T14:04:38.801Z,4.16
2023-02-23T14:07:31.622Z,4.16
2023-02-23T14:10:17.966Z,4.10
2023-02-23T14:13:18.157Z,4.06
2023-02-23T14:15:50.160Z,4.05
2023-02-23T14:18:55.062Z,4.01
2023-02-23T14:22:06.859Z,3.98
2023-02-23T14:24:37.066Z,3.98
2023-02-23T14:27:40.389Z,3.99
2023-02-23T14:30:20.808Z,3.97
2023-02-23T14:32:51.509Z,3.99
2023-02-23T14:35:32.678Z,3.93
2023-02-23T14:38:12.067Z,4.05
2023-02-23T14:40:46.840Z,4.00
2023-02-23T14:44:02.963Z,3.98
2023-02-23T14:46:39.774Z,3.96
2023-02-23T14:49:22.420Z,3.91
2023-02-23T14:51:57.255Z,3.94
2023-02-23T14:54:42.670Z,3.92
2023-02-23T14:57:41.603Z,3.95
2023-02-23T15:00:35.212Z,3.95
2023-02-23T15:03:46.631Z,3.95
2023-02-23T15:06:17.776Z,3.90
2023-02-23T15:09:37.140Z,3.89
2023-02-23T15:12:55.109Z,3.85
2023-02-23T15:15:58.895Z,3.82
2023-02-23T15:18:33.547Z,3.80
2023-02-23T15:21:09.246Z,3.79
2023-02-23T15:23:39.621Z,3.75
2023-02-23T15:26:34.124Z,3.73
2023-02-23T15:29:24.393Z,3.70
2023-02-23T15:31:58.299Z,3.69
2023-02-23T15:34:31.030Z,3.65
2023-02-23T15:37:14.398Z,3.61
2023-02-23T15:40:19.489Z,3.59
2023-02-23T15:42:54.561Z,3.54
2023-02-23T15:45:34.493Z,3.53
2023-02-23T15:48:09.232Z,3.51
2023-02-23T15:50:44.377Z,3.50
2023-02-23T15:53:43.862Z,3.46
2023-02-23T15:56:30.866Z,3.46
2023-02-23T15:59:14.595Z,3.42
2023-02-23T16:01:49.247Z,3.39
2023-02-23T16:04:20.604Z,3.37
2023-02-23T16:07:34.739Z,3.35
2023-02-23T16:10:21.172Z,3.33
2023-02-23T16:12:54.739Z,3.32
2023-02-23T16:16:15.313Z,3.27
2023-02-23T16:19:34.088Z,3.25
2023-02-23T16:22:20.710Z,3.30
2023-02-23T16:25:03.476Z,3.26
2023-02-23T16:27:33.411Z,3.23
2023-02-23T16:30:57.853Z,3.20
2023-02-23T16:34:39.379Z,3.18
2023-02-23T16:37:23.428Z,3.16
2023-02-23T16:39:56.532Z,3.14
2023-02-23T16:42:54.681Z,3.10
2023-02-23T16:46:15.176Z,3.08
2023-02-23T16:48:47.036Z,3.02
2023-02-23T16:51:21.148Z,3.00
2023-02-23T16:53:53.575Z,2.96
2023-02-23T16:56:24.158Z,2.93
2023-02-23T16:59:01.864Z,2.91
2023-02-23T17:01:33.222Z,2.86
2023-02-23T17:04:24.449Z,2.80
2023-02-23T17:07:03.896Z,2.59
2023-02-23T17:09:39.360Z,2.70
2023-02-23T17:12:24.074Z,2.67
2023-02-23T17:15:19.239Z,2.67
2023-02-23T17:17:50.689Z,2.64
2023-02-23T17:20:23.059Z,2.58
2023-02-23T17:23:09.662Z,2.53
2023-02-23T17:25:41.684Z,2.50
2023-02-23T17:28:13.996Z,2.47
2023-02-23T17:30:44.664Z,2.46
2023-02-23T17:33:15.168Z,2.51
2023-02-23T17:35:46.278Z,2.59
2023-02-23T17:38:21.737Z,2.64
2023-02-23T17:40:51.866Z,2.69
2023-02-23T17:43:24.064Z,2.69
2023-02-23T17:45:57.596Z,2.69
2023-02-23T17:48:32.145Z,2.76
2023-02-23T17:51:06.696Z,2.75
2023-02-23T17:53:37.929Z,2.73
2023-02-23T17:56:08.702Z,2.75
2023-02-23T17:58:41.522Z,2.74
2023-02-23T18:01:12.099Z,2.74
2023-02-23T18:03:43.698Z,2.74
2023-02-23T18:06:14.928Z,2.75
2023-02-23T18:08:45.725Z,2.78
2023-02-23T18:11:36.429Z,2.84
2023-02-23T18:14:07.170Z,2.89
2023-02-23T18:16:39.147Z,2.94
2023-02-23T18:19:31.417Z,2.96
2023-02-23T18:22:38.311Z,3.00
2023-02-23T18:25:10.251Z,2.98
2023-02-23T18:28:02.085Z,2.93
2023-02-23T18:30:30.707Z,2.88
2023-02-23T18:33:05.289Z,2.90
2023-02-23T18:35:41.424Z,2.92
2023-02-23T18:38:15.074Z,3.00
2023-02-23T18:40:45.471Z,3.06
2023-02-23T18:43:16.649Z,3.09
2023-02-23T18:45:46.663Z,3.12
2023-02-23T18:48:18.603Z,3.15
2023-02-23T18:50:47.993Z,3.17
2023-02-23T18:53:18.493Z,3.18
2023-02-23T18:55:47.723Z,3.20
2023-02-23T18:58:24.551Z,3.23
2023-02-23T19:01:19.524Z,3.23
2023-02-23T19:04:07.840Z,3.18
2023-02-23T19:06:39.354Z,3.19
2023-02-23T19:09:15.136Z,3.19
2023-02-23T19:11:44.649Z,3.17
2023-02-23T19:14:17.071Z,3.16
2023-02-23T19:16:47.177Z,3.11
2023-02-23T19:19:16.882Z,3.06
2023-02-23T19:21:45.785Z,3.00
2023-02-23T19:24:15.325Z,2.94
2023-02-23T19:26:45.818Z,2.90
2023-02-23T19:29:32.786Z,2.82
2023-02-23T19:32:01.423Z,2.78
2023-02-23T19:34:51.234Z,2.74
2023-02-23T19:37:22.121Z,2.71
2023-02-23T19:40:08.272Z,2.67
2023-02-23T19:42:46.962Z,2.68
2023-02-23T19:45:37.284Z,2.55
2023-02-23T19:48:15.946Z,2.60
2023-02-23T19:50:49.106Z,2.59
2023-02-23T19:53:23.820Z,2.51
2023-02-23T19:56:02.260Z,2.43
2023-02-23T19:58:35.671Z,2.39
2023-02-23T20:01:11.326Z,2.38
2023-02-23T20:03:45.421Z,2.33
2023-02-23T20:06:18.249Z,2.29
2023-02-23T20:08:52.721Z,2.29
2023-02-23T20:11:24.088Z,2.29
2023-02-23T20:13:55.964Z,2.27
2023-02-23T20:16:30.520Z,2.21
2023-02-23T20:19:00.416Z,2.14
2023-02-23T20:21:35.224Z,2.13
2023-02-23T20:24:06.032Z,2.09
2023-02-23T20:26:38.078Z,1.94
2023-02-23T20:29:18.026Z,2.07
2023-02-23T20:32:09.514Z,2.10
2023-02-23T20:34:39.409Z,2.09
2023-02-23T20:37:07.983Z,2.05
2023-02-23T20:39:58.985Z,2.00
2023-02-23T20:42:31.588Z,1.97
2023-02-23T20:45:01.651Z,1.92
2023-02-23T20:47:31.185Z,1.83
2023-02-23T20:50:02.199Z,1.80
2023-02-23T20:52:32.256Z,1.85
2023-02-23T20:55:30.409Z,1.89
2023-02-23T20:58:01.482Z,1.85
2023-02-23T21:00:34.495Z,1.80
2023-02-23T21:03:04.076Z,1.76
2023-02-23T21:05:41.136Z,1.77
2023-02-23T21:08:14.739Z,1.76
2023-02-23T21:10:45.743Z,1.75
2023-02-23T21:13:44.840Z,1.74
2023-02-23T21:16:24.943Z,1.78
2023-02-23T21:19:04.438Z,1.80
2023-02-23T21:21:42.188Z,1.85
2023-02-23T21:24:12.003Z,1.89
2023-02-23T21:27:02.767Z,1.85
2023-02-23T21:29:33.718Z,1.79
2023-02-23T21:32:05.352Z,1.76
2023-02-23T21:35:20.389Z,1.72
2023-02-23T21:37:52.688Z,1.70
2023-02-23T21:40:50.757Z,1.46
2023-02-23T21:43:43.816Z,1.64
2023-02-23T21:46:17.097Z,1.61
2023-02-23T21:48:45.460Z,1.58
2023-02-23T21:51:21.321Z,1.58
2023-02-23T21:54:08.468Z,1.54
2023-02-23T21:56:58.226Z,1.50
2023-02-23T21:59:28.590Z,1.48
2023-02-23T22:01:59.901Z,1.45
2023-02-23T22:04:29.202Z,1.45
2023-02-23T22:07:18.572Z,1.47
2023-02-23T22:10:07.533Z,1.48
2023-02-23T22:12:57.134Z,1.50
2023-02-23T22:15:31.788Z,1.43
2023-02-23T22:18:00.392Z,1.47
2023-02-23T22:20:30.207Z,1.48
2023-02-23T22:22:58.462Z,1.47
2023-02-23T22:25:26.688Z,1.44
2023-02-23T22:27:55.006Z,1.40
2023-02-23T22:30:26.724Z,1.38
2023-02-23T22:33:16.375Z,1.34
2023-02-23T22:35:48.925Z,1.35
2023-02-23T22:38:20.384Z,1.35
2023-02-23T22:41:13.245Z,1.36
2023-02-23T22:43:46.946Z,1.36
2023-02-23T22:46:19.281Z,1.35
2023-02-23T22:49:08.958Z,1.34
2023-02-23T22:51:50.464Z,1.34
2023-02-23T22:54:32.775Z,1.33
2023-02-23T22:57:23.139Z,1.30
2023-02-23T23:00:00.340Z,1.24
2023-02-23T23:02:33.187Z,1.23
2023-02-23T23:05:06.300Z,1.22
2023-02-23T23:07:36.742Z,1.23
2023-02-23T23:10:32.174Z,1.21
2023-02-23T23:13:03.552Z,1.22
2023-02-23T23:15:35.156Z,1.23
2023-02-23T23:18:10.270Z,1.23
2023-02-23T23:21:02.756Z,1.28
2023-02-23T23:23:32.244Z,1.35
2023-02-23T23:26:00.725Z,1.39
2023-02-23T23:28:40.759Z,1.41
2023-02-23T23:31:10.992Z,1.46
2023-02-23T23:34:11.793Z,1.53
2023-02-23T23:36:50.222Z,1.58
2023-02-23T23:39:33.000Z,1.55
2023-02-23T23:42:06.247Z,1.66
2023-02-23T23:44:36.538Z,1.68
2023-02-23T23:47:35.384Z,1.71
2023-02-23T23:50:11.222Z,1.74
2023-02-23T23:52:45.046Z,1.76
2023-02-23T23:55:16.532Z,1.80
2023-02-23T23:57:46.727Z,1.80
